createdAt,value
2023-03-08T00:01:32.100Z,1.60
2023-03-08T00:04:00.413Z,1.50
2023-03-08T00:06:27.796Z,1.70
2023-03-08T00:08:56.996Z,1.85
2023-03-08T00:11:24.185Z,2.15
2023-03-08T00:13:51.353Z,1.58
2023-03-08T00:16:18.579Z,1.80
2023-03-08T00:18:45.333Z,1.55
2023-03-08T00:21:15.102Z,1.83
2023-03-08T00:23:42.943Z,1.75
2023-03-08T00:26:10.964Z,1.80
2023-03-08T00:28:38.331Z,1.80
2023-03-08T00:31:11.663Z,1.85
2023-03-08T00:33:38.734Z,1.95
2023-03-08T00:36:07.098Z,1.95
2023-03-08T00:38:36.281Z,2.00
2023-03-08T00:41:03.644Z,1.65
2023-03-08T00:43:30.406Z,1.65
2023-03-08T00:45:57.436Z,1.65
2023-03-08T00:48:24.680Z,1.77
2023-03-08T00:50:51.574Z,1.65
2023-03-08T00:53:18.768Z,1.90
2023-03-08T00:55:59.057Z,1.85
2023-03-08T00:58:28.401Z,1.80
2023-03-08T01:00:55.512Z,1.50
2023-03-08T01:03:23.712Z,1.80
2023-03-08T01:05:53.339Z,1.90
2023-03-08T01:08:21.756Z,1.70
2023-03-08T01:10:49.826Z,1.65
2023-03-08T01:13:17.000Z,1.73
2023-03-08T01:15:43.939Z,1.75
2023-03-08T01:18:11.312Z,1.80
2023-03-08T01:20:38.031Z,1.50
2023-03-08T01:23:05.683Z,1.90
2023-03-08T01:25:32.478Z,1.60
2023-03-08T01:27:59.260Z,1.83
2023-03-08T01:30:26.142Z,1.88
2023-03-08T01:32:53.139Z,1.65
2023-03-08T01:35:20.892Z,2.00
2023-03-08T01:37:53.402Z,1.80
2023-03-08T01:40:21.128Z,1.90
2023-03-08T01:42:47.995Z,1.95
2023-03-08T01:45:52.493Z,1.80
2023-03-08T01:48:24.911Z,1.80
2023-03-08T01:50:51.826Z,1.70
2023-03-08T01:53:18.752Z,1.70
2023-03-08T01:55:45.553Z,1.80
2023-03-08T01:58:13.097Z,2.17
2023-03-08T02:00:39.906Z,1.83
2023-03-08T02:03:10.093Z,1.80
2023-03-08T02:05:39.984Z,1.60
2023-03-08T02:08:06.830Z,1.80
2023-03-08T02:10:35.000Z,1.90
2023-03-08T02:13:03.873Z,1.95
2023-03-08T02:15:30.701Z,2.20
2023-03-08T02:17:58.499Z,2.13
2023-03-08T02:20:29.395Z,2.17
2023-03-08T02:23:06.592Z,2.20
2023-03-08T02:25:33.283Z,2.38
2023-03-08T02:28:00.452Z,2.17
2023-03-08T02:30:32.142Z,2.15
2023-03-08T02:32:59.190Z,2.00
2023-03-08T02:35:26.320Z,2.30
2023-03-08T02:37:53.198Z,2.25
2023-03-08T02:40:20.088Z,2.20
2023-03-08T02:42:46.845Z,1.98
2023-03-08T02:45:13.909Z,2.00
2023-03-08T02:47:41.645Z,2.03
2023-03-08T02:50:09.355Z,1.90
2023-03-08T02:52:36.097Z,2.08
2023-03-08T02:55:02.935Z,2.20
2023-03-08T02:57:30.226Z,1.80
2023-03-08T02:59:56.988Z,1.90
2023-03-08T03:02:23.777Z,2.42
2023-03-08T03:04:50.551Z,2.20
2023-03-08T03:07:17.314Z,2.00
2023-03-08T03:09:45.119Z,2.28
2023-03-08T03:12:11.846Z,2.05
2023-03-08T03:14:38.595Z,2.15
2023-03-08T03:17:05.401Z,2.20
2023-03-08T03:19:32.175Z,2.05
2023-03-08T03:21:59.006Z,2.35
2023-03-08T03:24:25.785Z,1.90
2023-03-08T03:26:52.644Z,1.80
2023-03-08T03:29:19.470Z,1.90
2023-03-08T03:31:46.275Z,2.35
2023-03-08T03:34:13.024Z,2.03
2023-03-08T03:36:40.282Z,2.05
2023-03-08T03:39:07.195Z,2.05
2023-03-08T03:41:33.972Z,1.67
2023-03-08T03:44:00.812Z,2.30
2023-03-08T03:46:27.602Z,2.22
2023-03-08T03:48:54.366Z,2.28
2023-03-08T03:51:22.358Z,1.95
2023-03-08T03:53:49.598Z,1.80
2023-03-08T03:56:21.211Z,2.40
2023-03-08T03:58:48.715Z,1.80
2023-03-08T04:01:18.230Z,1.98
2023-03-08T04:03:45.302Z,2.20
2023-03-08T04:06:18.050Z,1.75
2023-03-08T04:08:45.166Z,1.98
2023-03-08T04:11:14.644Z,1.92
2023-03-08T04:13:42.132Z,1.88
2023-03-08T04:16:32.810Z,2.05
2023-03-08T04:19:02.405Z,2.35
2023-03-08T04:21:30.638Z,1.90
2023-03-08T04:24:00.389Z,1.60
2023-03-08T04:26:27.478Z,1.90
2023-03-08T04:28:54.318Z,1.90
2023-03-08T04:31:26.566Z,1.98
2023-03-08T04:33:53.394Z,1.90
2023-03-08T04:36:20.867Z,1.98
2023-03-08T04:38:49.109Z,2.30
2023-03-08T04:41:16.513Z,1.80
2023-03-08T04:43:55.047Z,2.20
2023-03-08T04:46:27.194Z,2.42
2023-03-08T04:48:55.678Z,2.30
2023-03-08T04:51:25.343Z,2.25
2023-03-08T04:53:52.717Z,2.10
2023-03-08T04:56:19.508Z,2.00
2023-03-08T04:58:46.688Z,2.40
2023-03-08T05:01:19.018Z,2.78
2023-03-08T05:03:46.465Z,2.28
2023-03-08T05:06:16.550Z,2.05
2023-03-08T05:08:43.511Z,2.35
2023-03-08T05:11:11.885Z,2.20
2023-03-08T05:13:39.010Z,2.60
2023-03-08T05:16:07.727Z,2.58
2023-03-08T05:18:34.849Z,2.25
2023-03-08T05:21:06.931Z,2.85
2023-03-08T05:23:34.066Z,2.90
2023-03-08T05:26:03.040Z,2.70
2023-03-08T05:28:31.879Z,2.30
2023-03-08T05:31:07.021Z,3.00
2023-03-08T05:33:35.242Z,3.10
2023-03-08T05:36:02.250Z,3.00
2023-03-08T05:38:29.516Z,3.10
2023-03-08T05:41:03.922Z,2.80
2023-03-08T05:43:30.901Z,3.05
2023-03-08T05:45:59.777Z,2.90
2023-03-08T05:48:26.892Z,3.15
2023-03-08T05:50:54.129Z,3.67
2023-03-08T05:53:22.611Z,3.22
2023-03-08T05:55:49.703Z,3.25
2023-03-08T05:58:16.579Z,3.15
2023-03-08T06:00:43.435Z,3.40
2023-03-08T06:03:10.276Z,3.20
2023-03-08T06:05:37.412Z,3.45
2023-03-08T06:08:04.372Z,3.30
2023-03-08T06:10:31.256Z,3.30
2023-03-08T06:12:58.078Z,3.35
2023-03-08T06:15:24.956Z,3.40
2023-03-08T06:17:54.901Z,3.25
2023-03-08T06:20:21.768Z,3.08
2023-03-08T06:22:48.557Z,3.05
2023-03-08T06:25:15.597Z,3.00
2023-03-08T06:27:42.370Z,2.70
2023-03-08T06:30:10.102Z,3.35
2023-03-08T06:32:37.664Z,3.22
2023-03-08T06:35:04.881Z,3.13
2023-03-08T06:37:35.557Z,3.00
2023-03-08T06:40:05.761Z,3.17
2023-03-08T06:42:41.242Z,3.28
2023-03-08T06:45:09.876Z,3.20
2023-03-08T06:47:36.747Z,3.00
2023-03-08T06:50:03.798Z,3.42
2023-03-08T06:52:37.491Z,2.95
2023-03-08T06:55:05.265Z,3.05
2023-03-08T06:57:32.200Z,3.63
2023-03-08T06:59:59.009Z,2.85
2023-03-08T07:02:26.086Z,2.97
2023-03-08T07:04:52.947Z,3.58
2023-03-08T07:07:19.758Z,2.97
2023-03-08T07:09:46.640Z,3.00
2023-03-08T07:12:13.423Z,3.38
2023-03-08T07:14:40.224Z,3.55
2023-03-08T07:17:07.020Z,3.33
2023-03-08T07:19:33.847Z,3.20
2023-03-08T07:22:00.608Z,3.08
2023-03-08T07:24:27.429Z,3.40
2023-03-08T07:26:54.230Z,3.53
2023-03-08T07:29:21.009Z,3.70
2023-03-08T07:31:47.867Z,3.80
2023-03-08T07:34:14.643Z,3.50
2023-03-08T07:36:41.548Z,3.97
2023-03-08T07:39:08.406Z,3.47
2023-03-08T07:41:35.857Z,3.30
2023-03-08T07:44:03.644Z,3.47
2023-03-08T07:46:31.073Z,3.08
2023-03-08T07:48:57.878Z,2.80
2023-03-08T07:51:25.067Z,3.60
2023-03-08T07:53:52.825Z,3.83
2023-03-08T07:56:19.598Z,3.30
2023-03-08T07:58:46.451Z,3.10
2023-03-08T08:01:14.377Z,3.00
2023-03-08T08:03:41.442Z,3.03
2023-03-08T08:06:08.968Z,3.50
2023-03-08T08:08:35.869Z,3.55
2023-03-08T08:11:02.746Z,3.35
2023-03-08T08:13:29.565Z,3.22
2023-03-08T08:16:03.326Z,3.45
2023-03-08T08:18:30.223Z,3.35
2023-03-08T08:21:05.913Z,3.83
2023-03-08T08:23:33.209Z,3.75
2023-03-08T08:26:00.424Z,3.40
2023-03-08T08:28:27.664Z,3.55
2023-03-08T08:31:05.645Z,3.13
2023-03-08T08:33:33.140Z,3.47
2023-03-08T08:36:00.676Z,3.20
2023-03-08T08:38:27.534Z,3.08
2023-03-08T08:40:54.354Z,3.53
2023-03-08T08:43:21.193Z,4.30
2023-03-08T08:45:53.316Z,3.28
2023-03-08T08:48:20.156Z,3.35
2023-03-08T08:50:46.936Z,3.75
2023-03-08T08:53:13.873Z,3.08
2023-03-08T08:55:42.137Z,3.08
2023-03-08T08:58:09.905Z,3.00
2023-03-08T09:00:37.144Z,3.50
2023-03-08T09:03:05.253Z,3.53
2023-03-08T09:05:33.365Z,3.60
2023-03-08T09:08:01.591Z,3.78
2023-03-08T09:10:30.954Z,10.68
2023-03-08T09:12:59.202Z,8.57
2023-03-08T09:15:26.956Z,8.23
2023-03-08T09:17:54.300Z,6.95
2023-03-08T09:20:23.427Z,6.90
2023-03-08T09:22:50.819Z,5.47
2023-03-08T09:25:20.836Z,5.43
2023-03-08T09:27:49.651Z,5.75
2023-03-08T09:30:17.480Z,5.47
2023-03-08T09:32:44.577Z,4.40
2023-03-08T09:35:11.462Z,4.20
2023-03-08T09:37:38.323Z,4.90
2023-03-08T09:40:09.893Z,4.95
2023-03-08T09:42:38.334Z,4.25
2023-03-08T09:45:23.448Z,4.25
2023-03-08T09:48:10.921Z,4.03
2023-03-08T09:50:51.585Z,4.00
2023-03-08T09:53:28.526Z,4.50
2023-03-08T09:56:18.515Z,4.43
2023-03-08T09:58:54.522Z,4.85
2023-03-08T10:01:42.096Z,4.78
2023-03-08T10:04:11.920Z,4.40
2023-03-08T10:06:58.675Z,4.28
2023-03-08T10:09:34.438Z,4.47
2023-03-08T10:12:13.879Z,4.00
2023-03-08T10:14:50.165Z,4.25
2023-03-08T10:17:21.085Z,4.03
2023-03-08T10:20:19.712Z,4.18
2023-03-08T10:22:51.468Z,4.30
2023-03-08T10:25:33.948Z,3.97
2023-03-08T10:28:03.399Z,3.72
2023-03-08T10:30:36.175Z,4.05
2023-03-08T10:33:08.007Z,4.30
2023-03-08T10:35:59.997Z,4.40
2023-03-08T10:38:29.820Z,3.75
2023-03-08T10:41:07.012Z,3.95
2023-03-08T10:43:39.079Z,4.05
2023-03-08T10:46:16.034Z,3.70
2023-03-08T10:48:43.516Z,3.83
2023-03-08T10:51:22.927Z,3.83
2023-03-08T10:54:00.692Z,4.10
2023-03-08T10:56:38.791Z,4.05
2023-03-08T10:59:15.723Z,4.20
2023-03-08T11:01:54.187Z,4.00
2023-03-08T11:04:23.548Z,3.72
2023-03-08T11:06:51.180Z,4.10
2023-03-08T11:09:24.107Z,4.10
2023-03-08T11:11:51.046Z,3.67
2023-03-08T11:14:17.929Z,3.40
2023-03-08T11:17:18.122Z,3.45
2023-03-08T11:20:09.620Z,3.70
2023-03-08T11:22:53.783Z,3.03
2023-03-08T11:25:26.551Z,3.22
2023-03-08T11:28:10.718Z,2.92
2023-03-08T11:30:57.031Z,3.15
2023-03-08T11:33:43.662Z,2.50
2023-03-08T11:39:25.502Z,2.85
2023-03-08T11:41:56.199Z,2.78
2023-03-08T11:44:37.170Z,2.35
2023-03-08T11:47:29.299Z,2.50
2023-03-08T11:50:33.942Z,2.38
2023-03-08T11:53:42.224Z,2.33
2023-03-08T11:56:28.457Z,2.30
2023-03-08T11:59:12.487Z,2.03
2023-03-08T12:01:46.250Z,1.92
2023-03-08T12:04:18.439Z,1.98
2023-03-08T12:06:47.114Z,1.77
2023-03-08T12:09:22.945Z,1.65
2023-03-08T12:12:04.890Z,1.90
2023-03-08T12:14:36.460Z,1.88
2023-03-08T12:17:32.012Z,1.60
2023-03-08T12:19:58.962Z,1.83
2023-03-08T12:22:45.999Z,1.85
2023-03-08T12:25:34.754Z,2.20
2023-03-08T12:28:27.383Z,2.00
2023-03-08T12:31:11.039Z,2.17
2023-03-08T12:33:46.246Z,2.00
2023-03-08T12:36:13.580Z,2.00
2023-03-08T12:38:45.466Z,2.10
2023-03-08T12:41:24.034Z,2.40
2023-03-08T12:44:23.328Z,2.13
2023-03-08T12:47:03.900Z,2.35
2023-03-08T12:49:43.825Z,2.10
2023-03-08T12:52:25.050Z,1.60
2023-03-08T12:55:26.837Z,1.80
2023-03-08T12:57:55.560Z,1.98
2023-03-08T13:00:37.358Z,1.80
2023-03-08T13:03:37.301Z,2.08
2023-03-08T13:06:22.900Z,2.05
2023-03-08T13:09:13.616Z,1.95
2023-03-08T13:11:47.870Z,2.17
2023-03-08T13:14:38.813Z,2.20
2023-03-08T13:17:27.600Z,1.98
2023-03-08T13:19:55.576Z,2.42
2023-03-08T13:22:33.808Z,2.22
2023-03-08T13:25:31.086Z,2.25
2023-03-08T13:28:01.045Z,2.20
2023-03-08T13:30:49.943Z,2.10
2023-03-08T13:33:39.299Z,2.67
2023-03-08T13:36:16.562Z,2.20
2023-03-08T13:38:43.557Z,2.50
2023-03-08T13:41:10.427Z,2.35
2023-03-08T13:43:37.209Z,2.05
2023-03-08T13:46:10.551Z,2.20
2023-03-08T13:48:37.504Z,2.35
2023-03-08T13:51:04.519Z,2.00
2023-03-08T13:53:37.292Z,2.25
2023-03-08T13:56:06.214Z,2.30
2023-03-08T13:58:47.299Z,2.50
2023-03-08T14:01:23.600Z,2.40
2023-03-08T14:03:52.570Z,2.80
2023-03-08T14:06:38.221Z,2.30
2023-03-08T14:09:05.759Z,2.50
2023-03-08T14:11:36.512Z,2.72
2023-03-08T14:14:09.351Z,2.30
2023-03-08T14:16:39.688Z,2.20
2023-03-08T14:19:11.398Z,2.60
2023-03-08T14:21:38.633Z,2.60
2023-03-08T14:24:06.976Z,2.40
2023-03-08T14:26:37.238Z,2.30
2023-03-08T14:29:42.515Z,2.38
2023-03-08T14:32:12.991Z,2.13
2023-03-08T14:34:48.685Z,2.10
2023-03-08T14:37:23.919Z,2.10
2023-03-08T14:40:09.252Z,2.33
2023-03-08T14:43:02.326Z,2.10
2023-03-08T14:45:50.240Z,2.13
2023-03-08T14:48:20.004Z,2.05
2023-03-08T14:51:07.588Z,1.90
2023-03-08T14:53:39.848Z,1.92
2023-03-08T14:56:09.667Z,1.80
2023-03-08T14:58:40.385Z,2.40
2023-03-08T15:01:07.422Z,2.13
2023-03-08T15:03:34.241Z,2.03
2023-03-08T15:06:12.573Z,2.40
2023-03-08T15:08:39.477Z,2.10
2023-03-08T15:11:07.640Z,2.15
2023-03-08T15:13:34.383Z,2.55
2023-03-08T15:16:01.283Z,2.22
2023-03-08T15:18:28.048Z,2.85
2023-03-08T15:20:54.934Z,2.03
2023-03-08T15:23:25.981Z,2.90
2023-03-08T15:25:53.227Z,2.13
2023-03-08T15:28:22.880Z,2.00
2023-03-08T15:30:52.824Z,1.80
2023-03-08T15:33:20.555Z,2.03
2023-03-08T15:35:48.279Z,2.13
2023-03-08T15:38:17.492Z,1.83
2023-03-08T15:40:44.768Z,2.08
2023-03-08T15:43:11.774Z,2.00
2023-03-08T15:45:38.615Z,2.10
2023-03-08T15:48:12.909Z,2.20
2023-03-08T15:50:39.772Z,1.90
2023-03-08T15:53:06.984Z,2.08
2023-03-08T15:55:33.977Z,2.40
2023-03-08T15:58:00.793Z,6.13
2023-03-08T16:00:28.204Z,10.40
2023-03-08T16:02:55.451Z,9.45
2023-03-08T16:05:24.888Z,9.68
2023-03-08T16:08:00.488Z,8.73
2023-03-08T16:10:28.762Z,8.23
2023-03-08T16:12:55.609Z,6.55
2023-03-08T16:15:22.913Z,5.32
2023-03-08T16:17:49.767Z,5.45
2023-03-08T16:20:16.802Z,4.85
2023-03-08T16:22:45.638Z,4.18
2023-03-08T16:25:12.453Z,3.75
2023-03-08T16:27:39.279Z,3.58
2023-03-08T16:30:06.835Z,2.88
2023-03-08T16:32:33.827Z,3.25
2023-03-08T16:35:01.366Z,2.40
2023-03-08T16:37:28.676Z,2.65
2023-03-08T16:39:59.027Z,2.10
2023-03-08T16:42:26.070Z,1.77
2023-03-08T16:44:54.285Z,1.73
2023-03-08T16:47:23.014Z,1.70
2023-03-08T16:49:50.039Z,1.10
2023-03-08T16:52:17.889Z,1.20
2023-03-08T16:54:45.189Z,1.50
2023-03-08T16:57:19.138Z,1.30
2023-03-08T16:59:47.120Z,1.60
2023-03-08T17:02:19.700Z,1.70
2023-03-08T17:04:47.660Z,1.58
2023-03-08T17:07:15.126Z,1.95
2023-03-08T17:09:41.931Z,1.65
2023-03-08T17:12:09.342Z,2.13
2023-03-08T17:14:36.585Z,2.38
2023-03-08T17:17:04.533Z,2.10
2023-03-08T17:19:31.948Z,1.95
2023-03-08T17:21:58.798Z,2.10
2023-03-08T17:24:27.906Z,2.08
2023-03-08T17:26:55.368Z,2.00
2023-03-08T17:29:22.276Z,2.08
2023-03-08T17:31:49.702Z,1.95
2023-03-08T17:34:18.030Z,2.13
2023-03-08T17:36:46.721Z,1.80
2023-03-08T17:39:14.270Z,2.10
2023-03-08T17:41:41.542Z,2.47
2023-03-08T17:44:08.444Z,2.17
2023-03-08T17:46:35.312Z,2.42
2023-03-08T17:49:02.194Z,2.30
2023-03-08T17:51:31.047Z,2.65
2023-03-08T17:53:58.251Z,2.88
2023-03-08T17:56:29.436Z,2.70
2023-03-08T17:58:57.893Z,3.80
2023-03-08T18:01:28.333Z,4.97
2023-03-08T18:03:55.682Z,5.07
2023-03-08T18:06:33.241Z,5.05
2023-03-08T18:09:02.487Z,5.63
2023-03-08T18:11:30.574Z,5.35
2023-03-08T18:13:57.495Z,4.72
2023-03-08T18:16:24.477Z,4.32
2023-03-08T18:18:51.728Z,3.78
2023-03-08T18:21:19.795Z,3.53
2023-03-08T18:23:47.112Z,2.60
2023-03-08T18:26:16.472Z,2.72
2023-03-08T18:28:43.312Z,2.22
2023-03-08T18:31:13.036Z,2.10
2023-03-08T18:33:39.847Z,2.30
2023-03-08T18:36:08.188Z,1.77
2023-03-08T18:38:35.250Z,1.60
2023-03-08T18:41:29.596Z,1.73
2023-03-08T18:43:59.300Z,1.70
2023-03-08T18:46:29.099Z,1.40
2023-03-08T18:49:03.603Z,1.50
2023-03-08T18:51:31.409Z,1.40
2023-03-08T18:53:59.551Z,1.90
2023-03-08T18:56:27.644Z,1.60
2023-03-08T18:58:55.703Z,1.70
2023-03-08T19:01:24.047Z,1.33
2023-03-08T19:03:51.038Z,1.48
2023-03-08T19:06:17.928Z,1.75
2023-03-08T19:08:44.739Z,1.30
2023-03-08T19:11:16.937Z,1.42
2023-03-08T19:13:44.590Z,1.70
2023-03-08T19:16:26.078Z,1.58
2023-03-08T19:18:55.807Z,1.75
2023-03-08T19:21:31.512Z,1.45
2023-03-08T19:23:58.951Z,1.60
2023-03-08T19:26:36.622Z,1.40
2023-03-08T19:29:20.364Z,1.45
2023-03-08T19:32:00.879Z,1.42
2023-03-08T19:34:40.341Z,1.48
2023-03-08T19:37:09.202Z,1.55
2023-03-08T19:39:38.032Z,1.67
2023-03-08T19:42:07.687Z,1.70
2023-03-08T19:44:34.603Z,1.70
2023-03-08T19:47:01.584Z,2.28
2023-03-08T19:49:30.471Z,2.70
2023-03-08T19:51:59.014Z,2.47
2023-03-08T19:54:26.728Z,2.90
2023-03-08T19:56:54.424Z,2.65
2023-03-08T19:59:21.815Z,2.83
2023-03-08T20:01:53.145Z,2.90
2023-03-08T20:04:20.814Z,2.47
2023-03-08T20:06:49.022Z,2.65
2023-03-08T20:09:21.292Z,2.15
2023-03-08T20:11:50.521Z,1.92
2023-03-08T20:14:17.337Z,2.60
2023-03-08T20:16:44.138Z,2.08
2023-03-08T20:19:11.329Z,1.77
2023-03-08T20:21:38.266Z,2.28
2023-03-08T20:24:05.450Z,1.90
2023-03-08T20:26:35.784Z,2.10
2023-03-08T20:29:03.585Z,1.52
2023-03-08T20:31:31.504Z,1.50
2023-03-08T20:33:58.307Z,1.52
2023-03-08T20:36:25.696Z,1.50
2023-03-08T20:38:52.557Z,1.70
2023-03-08T20:41:21.316Z,1.50
2023-03-08T20:43:50.156Z,1.35
2023-03-08T20:46:19.139Z,1.48
2023-03-08T20:48:46.619Z,1.60
2023-03-08T20:51:18.557Z,1.73
2023-03-08T20:53:48.090Z,1.50
2023-03-08T20:56:16.696Z,1.67
2023-03-08T20:58:43.687Z,1.45
2023-03-08T21:01:19.872Z,1.52
2023-03-08T21:06:18.741Z,1.30
2023-03-08T21:08:46.846Z,1.35
2023-03-08T21:11:14.014Z,1.40
2023-03-08T21:13:41.416Z,1.50
2023-03-08T21:16:12.288Z,1.17
2023-03-08T21:18:39.254Z,1.90
2023-03-08T21:21:06.238Z,1.30
2023-03-08T21:23:33.016Z,1.30
2023-03-08T21:26:00.863Z,1.33
2023-03-08T21:28:28.157Z,1.10
2023-03-08T21:30:54.991Z,1.23
2023-03-08T21:33:21.884Z,1.08
2023-03-08T21:35:48.660Z,1.35
2023-03-08T21:38:15.492Z,1.20
2023-03-08T21:40:43.084Z,1.00
2023-03-08T21:43:09.982Z,0.95
2023-03-08T21:45:41.508Z,1.10
2023-03-08T21:48:09.424Z,0.90
2023-03-08T21:50:42.319Z,1.00
2023-03-08T21:53:09.144Z,1.10
2023-03-08T21:55:40.089Z,1.00
2023-03-08T21:58:08.362Z,0.95
2023-03-08T22:00:35.493Z,0.80
2023-03-08T22:03:02.907Z,0.80
2023-03-08T22:05:30.520Z,1.08
2023-03-08T22:07:57.625Z,0.95
2023-03-08T22:10:24.428Z,0.90
2023-03-08T22:12:51.207Z,1.00
2023-03-08T22:15:18.100Z,0.70
2023-03-08T22:17:44.910Z,0.80
2023-03-08T22:20:12.679Z,0.63
2023-03-08T22:22:40.164Z,0.80
2023-03-08T22:25:08.028Z,0.60
2023-03-08T22:27:34.844Z,0.68
2023-03-08T22:30:02.283Z,0.77
2023-03-08T22:32:29.446Z,0.70
2023-03-08T22:34:56.361Z,0.70
2023-03-08T22:37:23.169Z,0.65
2023-03-08T22:39:50.017Z,0.80
2023-03-08T22:42:17.014Z,0.70
2023-03-08T22:44:43.930Z,0.60
2023-03-08T22:47:10.802Z,0.63
2023-03-08T22:49:37.709Z,1.02
2023-03-08T22:52:05.588Z,0.50
2023-03-08T22:54:32.433Z,0.60
2023-03-08T22:56:59.205Z,0.50
2023-03-08T22:59:26.123Z,0.40
2023-03-08T23:01:53.839Z,0.60
2023-03-08T23:04:21.000Z,0.57
2023-03-08T23:06:48.213Z,0.43
2023-03-08T23:09:17.042Z,0.40
2023-03-08T23:11:44.384Z,0.40
2023-03-08T23:14:12.232Z,0.45
2023-03-08T23:16:44.522Z,0.40
2023-03-08T23:19:14.287Z,0.43
2023-03-08T23:21:41.377Z,0.50
2023-03-08T23:24:08.359Z,0.50
2023-03-08T23:26:35.293Z,0.30
2023-03-08T23:29:03.472Z,0.30
2023-03-08T23:31:33.762Z,0.40
2023-03-08T23:34:01.676Z,0.50
2023-03-08T23:36:32.104Z,0.30
2023-03-08T23:39:01.826Z,0.30
2023-03-08T23:41:29.555Z,0.30
2023-03-08T23:43:58.716Z,0.40
2023-03-08T23:46:26.332Z,0.30
2023-03-08T23:48:55.968Z,0.40
2023-03-08T23:51:23.995Z,0.40
2023-03-08T23:53:53.739Z,0.30
2023-03-08T23:56:31.068Z,0.22
2023-03-08T23:59:02.526Z,0.38
